createdAt,value
2023-04-12T00:00:51.545Z,960.80
2023-04-12T00:01:51.604Z,960.79
2023-04-12T00:02:51.701Z,960.78
2023-04-12T00:03:51.786Z,960.76
2023-04-12T00:04:51.784Z,960.74
2023-04-12T00:05:51.797Z,960.75
2023-04-12T00:06:51.861Z,960.71
2023-04-12T00:07:51.910Z,960.68
2023-04-12T00:08:51.977Z,960.68
2023-04-12T00:09:52.036Z,960.64
2023-04-12T00:10:52.088Z,960.62
2023-04-12T00:11:52.148Z,960.63
2023-04-12T00:12:52.238Z,960.61
2023-04-12T00:13:52.271Z,960.60
2023-04-12T00:14:52.304Z,960.59
2023-04-12T00:15:52.388Z,960.57
2023-04-12T00:16:52.413Z,960.56
2023-04-12T00:17:52.503Z,960.54
2023-04-12T00:18:52.549Z,960.52
2023-04-12T00:19:52.566Z,960.51
2023-04-12T00:20:52.614Z,960.49
2023-04-12T00:21:52.691Z,960.50
2023-04-12T00:22:52.726Z,960.51
2023-04-12T00:23:52.827Z,960.52
2023-04-12T00:24:52.883Z,960.51
2023-04-12T00:25:52.927Z,960.51
2023-04-12T00:26:52.978Z,960.50
2023-04-12T00:27:53.046Z,960.47
2023-04-12T00:28:53.127Z,960.44
2023-04-12T00:29:53.148Z,960.44
2023-04-12T00:30:53.294Z,960.43
2023-04-12T00:31:53.269Z,960.42
2023-04-12T00:32:53.415Z,960.40
2023-04-12T00:33:53.430Z,960.38
2023-04-12T00:34:53.391Z,960.38
2023-04-12T00:35:53.485Z,960.40
2023-04-12T00:36:53.545Z,960.39
2023-04-12T00:37:53.603Z,960.38
2023-04-12T00:38:53.652Z,960.36
2023-04-12T00:39:53.726Z,960.39
2023-04-12T00:40:53.754Z,960.37
2023-04-12T00:41:53.815Z,960.39
2023-04-12T00:45:46.845Z,960.41
2023-04-12T00:46:47.966Z,960.38
2023-04-12T00:47:48.108Z,960.36
2023-04-12T00:48:48.051Z,960.38
2023-04-12T00:49:48.088Z,960.34
2023-04-12T00:50:48.159Z,960.33
2023-04-12T00:51:48.289Z,960.31
2023-04-12T00:52:48.269Z,960.29
2023-04-12T00:53:48.324Z,960.29
2023-04-12T00:54:48.383Z,960.27
2023-04-12T00:55:48.468Z,960.28
2023-04-12T00:56:48.527Z,960.28
2023-04-12T00:57:48.580Z,960.24
2023-04-12T00:58:48.661Z,960.26
2023-04-12T00:59:48.684Z,960.25
2023-04-12T01:00:48.766Z,960.29
2023-04-12T01:01:48.820Z,960.29
2023-04-12T01:02:48.955Z,960.32
2023-04-12T01:03:49.099Z,960.33
2023-04-12T01:04:48.962Z,960.33
2023-04-12T01:05:49.033Z,960.30
2023-04-12T01:06:49.075Z,960.28
2023-04-12T01:07:49.111Z,960.25
2023-04-12T01:08:49.163Z,960.27
2023-04-12T01:09:49.205Z,960.24
2023-04-12T01:10:49.283Z,960.27
2023-04-12T01:11:49.320Z,960.24
2023-04-12T01:12:49.370Z,960.21
2023-04-12T01:13:49.416Z,960.24
2023-04-12T01:14:49.472Z,960.27
2023-04-12T01:15:49.550Z,960.26
2023-04-12T01:16:49.618Z,960.27
2023-04-12T01:17:49.716Z,960.29
2023-04-12T01:18:49.727Z,960.25
2023-04-12T01:19:49.791Z,960.25
2023-04-12T01:20:49.848Z,960.22
2023-04-12T01:21:49.897Z,960.21
2023-04-12T01:22:49.987Z,960.18
2023-04-12T01:23:50.038Z,960.16
2023-04-12T01:24:50.088Z,960.14
2023-04-12T01:25:50.239Z,960.15
2023-04-12T01:26:50.237Z,960.12
2023-04-12T01:27:50.293Z,960.14
2023-04-12T01:28:50.367Z,960.14
2023-04-12T01:29:50.406Z,960.13
2023-04-12T01:30:50.489Z,960.13
2023-04-12T01:31:50.556Z,960.10
2023-04-12T01:32:50.614Z,960.10
2023-04-12T01:33:50.644Z,960.06
2023-04-12T01:34:50.953Z,960.06
2023-04-12T01:35:50.829Z,960.01
2023-04-12T01:36:50.873Z,960.00
2023-04-12T01:37:50.943Z,959.97
2023-04-12T01:38:50.999Z,959.96
2023-04-12T01:39:51.056Z,959.94
2023-04-12T01:40:51.173Z,959.94
2023-04-12T01:41:51.172Z,959.93
2023-04-12T01:42:51.215Z,959.91
2023-04-12T01:43:51.298Z,959.85
2023-04-12T01:44:51.336Z,959.85
2023-04-12T01:45:51.448Z,959.84
2023-04-12T01:46:51.486Z,959.85
2023-04-12T01:47:51.575Z,959.83
2023-04-12T01:48:51.579Z,959.81
2023-04-12T01:49:51.623Z,959.81
2023-04-12T01:50:51.686Z,959.80
2023-04-12T01:51:51.763Z,959.79
2023-04-12T01:52:51.841Z,959.78
2023-04-12T01:53:51.898Z,959.77
2023-04-12T01:54:51.966Z,959.78
2023-04-12T01:55:52.003Z,959.77
2023-04-12T01:56:52.005Z,959.76
2023-04-12T01:57:52.079Z,959.73
2023-04-12T01:58:52.269Z,959.73
2023-04-12T01:59:52.188Z,959.70
2023-04-12T02:00:52.263Z,959.71
2023-04-12T02:01:52.374Z,959.68
2023-04-12T02:02:52.421Z,959.68
2023-04-12T02:03:52.520Z,959.65
2023-04-12T02:04:52.476Z,959.65
2023-04-12T02:05:52.524Z,959.65
2023-04-12T02:06:52.582Z,959.62
2023-04-12T02:07:52.644Z,959.61
2023-04-12T02:08:52.683Z,959.59
2023-04-12T02:09:52.728Z,959.62
2023-04-12T02:10:52.830Z,959.61
2023-04-12T02:11:52.789Z,959.61
2023-04-12T02:12:52.892Z,959.63
2023-04-12T02:13:52.976Z,959.65
2023-04-12T02:14:53.012Z,959.64
2023-04-12T02:15:53.067Z,959.64
2023-04-12T02:16:53.241Z,959.61
2023-04-12T02:20:06.416Z,959.50
2023-04-12T02:21:05.712Z,959.57
2023-04-12T02:24:58.723Z,959.43
2023-04-12T02:25:59.801Z,959.43
2023-04-12T02:26:59.923Z,959.42
2023-04-12T02:27:59.918Z,959.38
2023-04-12T02:28:59.984Z,959.36
2023-04-12T02:30:00.027Z,959.32
2023-04-12T02:31:00.140Z,959.33
2023-04-12T02:32:00.147Z,959.29
2023-04-12T02:33:00.275Z,959.29
2023-04-12T02:34:00.257Z,959.28
2023-04-12T02:35:00.294Z,959.25
2023-04-12T02:36:00.382Z,959.25
2023-04-12T02:37:00.447Z,959.24
2023-04-12T02:38:00.476Z,959.22
2023-04-12T02:39:00.523Z,959.18
2023-04-12T02:40:00.601Z,959.17
2023-04-12T02:41:00.630Z,959.15
2023-04-12T02:42:00.749Z,959.14
2023-04-12T02:43:00.768Z,959.15
2023-04-12T02:44:00.814Z,959.15
2023-04-12T02:45:00.925Z,959.14
2023-04-12T02:46:01.019Z,959.11
2023-04-12T02:47:01.013Z,959.09
2023-04-12T02:48:01.172Z,959.07
2023-04-12T02:49:01.135Z,959.03
2023-04-12T02:50:01.160Z,958.99
2023-04-12T02:51:01.200Z,958.97
2023-04-12T02:52:01.263Z,958.93
2023-04-12T02:53:01.305Z,958.89
2023-04-12T02:54:01.384Z,958.86
2023-04-12T02:55:01.412Z,958.82
2023-04-12T02:56:01.461Z,958.82
2023-04-12T02:57:01.549Z,958.78
2023-04-12T02:58:01.607Z,958.75
2023-04-12T02:59:01.724Z,958.75
2023-04-12T03:00:01.762Z,958.75
2023-04-12T03:01:01.856Z,958.75
2023-04-12T03:02:02.006Z,958.74
2023-04-12T03:03:01.999Z,958.74
2023-04-12T03:04:02.075Z,958.72
2023-04-12T03:05:02.044Z,958.71
2023-04-12T03:06:02.098Z,958.68
2023-04-12T03:07:02.191Z,958.65
2023-04-12T03:08:02.240Z,958.64
2023-04-12T03:09:02.297Z,958.62
2023-04-12T03:10:02.381Z,958.58
2023-04-12T03:11:02.415Z,958.57
2023-04-12T03:12:02.544Z,958.53
2023-04-12T03:13:02.490Z,958.52
2023-04-12T03:14:02.584Z,958.50
2023-04-12T03:15:02.640Z,958.48
2023-04-12T03:16:02.709Z,958.47
2023-04-12T03:17:02.776Z,958.45
2023-04-12T03:18:02.903Z,958.43
2023-04-12T03:19:02.870Z,958.42
2023-04-12T03:20:02.934Z,958.41
2023-04-12T03:21:02.964Z,958.40
2023-04-12T03:22:03.096Z,958.39
2023-04-12T03:23:03.121Z,958.37
2023-04-12T03:24:03.149Z,958.34
2023-04-12T03:25:03.199Z,958.34
2023-04-12T03:26:03.274Z,958.33
2023-04-12T03:27:03.332Z,958.32
2023-04-12T03:28:03.371Z,958.33
2023-04-12T03:29:03.481Z,958.33
2023-04-12T03:30:03.541Z,958.34
2023-04-12T03:31:03.601Z,958.33
2023-04-12T03:32:03.705Z,958.31
2023-04-12T03:33:03.782Z,958.29
2023-04-12T03:34:03.800Z,958.26
2023-04-12T03:35:03.861Z,958.24
2023-04-12T03:36:03.936Z,958.22
2023-04-12T03:39:56.913Z,958.15
2023-04-12T03:44:41.128Z,958.08
2023-04-12T03:45:42.237Z,958.07
2023-04-12T03:46:42.286Z,958.03
2023-04-12T03:47:42.364Z,957.98
2023-04-12T03:48:42.370Z,957.96
2023-04-12T03:51:37.538Z,957.87
2023-04-12T03:52:45.718Z,957.83
2023-04-12T03:53:38.660Z,957.77
2023-04-12T03:54:38.724Z,957.73
2023-04-12T03:55:38.932Z,957.71
2023-04-12T03:56:38.886Z,957.67
2023-04-12T03:57:38.912Z,957.66
2023-04-12T03:58:38.972Z,957.67
2023-04-12T03:59:39.048Z,957.65
2023-04-12T04:00:39.072Z,957.64
2023-04-12T04:01:39.195Z,957.62
2023-04-12T04:02:39.261Z,957.61
2023-04-12T04:03:39.398Z,957.58
2023-04-12T04:04:39.363Z,957.56
2023-04-12T04:05:39.430Z,957.55
2023-04-12T04:06:39.500Z,957.54
2023-04-12T04:07:39.564Z,957.55
2023-04-12T04:08:39.642Z,957.54
2023-04-12T04:09:39.670Z,957.54
2023-04-12T04:10:39.768Z,957.53
2023-04-12T04:11:39.811Z,957.52
2023-04-12T04:12:39.879Z,957.52
2023-04-12T04:13:39.859Z,957.53
2023-04-12T04:14:39.943Z,957.52
2023-04-12T04:15:39.997Z,957.50
2023-04-12T04:16:40.161Z,957.48
2023-04-12T04:17:40.210Z,957.49
2023-04-12T04:18:40.120Z,957.51
2023-04-12T04:19:40.190Z,957.49
2023-04-12T04:20:40.234Z,957.48
2023-04-12T04:21:40.332Z,957.45
2023-04-12T04:22:40.367Z,957.43
2023-04-12T04:23:40.419Z,957.41
2023-04-12T04:24:40.505Z,957.44
2023-04-12T04:25:40.586Z,957.44
2023-04-12T04:26:40.644Z,957.46
2023-04-12T04:27:40.678Z,957.44
2023-04-12T04:28:40.924Z,957.43
2023-04-12T04:29:40.806Z,957.44
2023-04-12T04:30:40.860Z,957.45
2023-04-12T04:31:41.017Z,957.41
2023-04-12T04:32:40.975Z,957.37
2023-04-12T04:33:41.012Z,957.38
2023-04-12T04:34:41.104Z,957.35
2023-04-12T04:35:41.163Z,957.34
2023-04-12T04:36:41.240Z,957.33
2023-04-12T04:37:41.270Z,957.31
2023-04-12T04:38:41.321Z,957.28
2023-04-12T04:39:41.361Z,957.26
2023-04-12T04:40:41.438Z,957.29
2023-04-12T04:41:41.714Z,957.27
2023-04-12T04:42:41.548Z,957.26
2023-04-12T04:43:41.612Z,957.25
2023-04-12T04:44:41.655Z,957.22
2023-04-12T04:45:41.772Z,957.21
2023-04-12T04:46:41.785Z,957.20
2023-04-12T04:47:41.876Z,957.18
2023-04-12T04:48:41.906Z,957.17
2023-04-12T04:49:42.023Z,957.16
2023-04-12T04:50:42.058Z,957.16
2023-04-12T04:51:42.119Z,957.16
2023-04-12T04:52:42.162Z,957.17
2023-04-12T04:53:42.205Z,957.16
2023-04-12T04:54:42.274Z,957.15
2023-04-12T04:55:42.322Z,957.14
2023-04-12T04:56:42.497Z,957.11
2023-04-12T04:57:42.477Z,957.10
2023-04-12T04:58:42.537Z,957.10
2023-04-12T04:59:42.647Z,957.09
2023-04-12T05:00:42.684Z,957.11
2023-04-12T05:01:42.832Z,957.10
2023-04-12T05:02:43.035Z,957.10
2023-04-12T05:03:43.017Z,957.08
2023-04-12T05:04:42.952Z,957.09
2023-04-12T05:05:43.013Z,957.09
2023-04-12T05:06:43.092Z,957.09
2023-04-12T05:07:43.125Z,957.08
2023-04-12T05:08:43.181Z,957.07
2023-04-12T05:12:36.216Z,956.99
2023-04-12T05:13:37.289Z,956.98
2023-04-12T05:14:46.759Z,956.98
2023-04-12T05:15:37.360Z,956.94
2023-04-12T05:16:37.488Z,956.95
2023-04-12T05:17:37.591Z,956.97
2023-04-12T05:20:49.563Z,956.89
2023-04-12T05:21:48.910Z,956.95
2023-04-12T05:22:49.018Z,956.95
2023-04-12T05:23:49.016Z,956.95
2023-04-12T05:24:49.108Z,956.95
2023-04-12T05:25:49.164Z,956.92
2023-04-12T05:26:49.254Z,956.91
2023-04-12T05:27:51.410Z,956.92
2023-04-12T05:28:49.294Z,956.94
2023-04-12T05:29:49.359Z,956.93
2023-04-12T05:30:49.445Z,956.92
2023-04-12T05:34:42.473Z,956.87
2023-04-12T05:35:43.536Z,956.86
2023-04-12T05:36:43.567Z,956.84
2023-04-12T05:37:43.675Z,956.85
2023-04-12T05:38:43.715Z,956.84
2023-04-12T05:39:43.816Z,956.83
2023-04-12T05:40:43.843Z,956.84
2023-04-12T05:41:43.951Z,956.83
2023-04-12T05:42:43.966Z,956.81
2023-04-12T05:43:44.053Z,956.82
2023-04-12T05:44:44.109Z,956.81
2023-04-12T05:45:44.131Z,956.80
2023-04-12T05:46:44.273Z,956.79
2023-04-12T05:47:44.301Z,956.78
2023-04-12T05:48:44.324Z,956.76
2023-04-12T05:49:44.752Z,956.75
2023-04-12T05:50:44.451Z,956.75
2023-04-12T05:51:44.517Z,956.77
2023-04-12T05:52:44.606Z,956.77
2023-04-12T05:55:40.877Z,956.73
2023-04-12T05:59:33.274Z,956.74
2023-04-12T06:00:34.243Z,956.75
2023-04-12T06:01:34.352Z,956.76
2023-04-12T06:02:34.564Z,956.78
2023-04-12T06:03:34.937Z,956.77
2023-04-12T06:04:48.690Z,956.76
2023-04-12T06:05:34.626Z,956.74
2023-04-12T06:06:34.656Z,956.75
2023-04-12T06:07:34.644Z,956.70
2023-04-12T06:08:36.524Z,956.68
2023-04-12T06:09:34.997Z,956.66
2023-04-12T06:10:34.824Z,956.64
2023-04-12T06:11:38.119Z,956.65
2023-04-12T06:12:34.963Z,956.67
2023-04-12T06:13:35.064Z,956.67
2023-04-12T06:14:35.058Z,956.66
2023-04-12T06:15:35.147Z,956.64
2023-04-12T06:16:35.238Z,956.63
2023-04-12T06:17:35.845Z,956.62
2023-04-12T06:18:35.255Z,956.60
2023-04-12T06:19:35.317Z,956.60
2023-04-12T06:20:35.412Z,956.64
2023-04-12T06:21:35.427Z,956.62
2023-04-12T06:22:35.542Z,956.62
2023-04-12T06:23:35.556Z,956.59
2023-04-12T06:24:35.622Z,956.57
2023-04-12T06:25:35.690Z,956.53
2023-04-12T06:26:39.689Z,956.53
2023-04-12T06:27:35.811Z,956.50
2023-04-12T06:28:35.826Z,956.49
2023-04-12T06:29:35.864Z,956.48
2023-04-12T06:30:35.924Z,956.50
2023-04-12T06:31:36.026Z,956.47
2023-04-12T06:32:36.168Z,956.46
2023-04-12T06:33:36.151Z,956.40
2023-04-12T06:34:36.240Z,956.39
2023-04-12T06:35:36.342Z,956.37
2023-04-12T06:36:36.329Z,956.37
2023-04-12T06:37:36.418Z,956.36
2023-04-12T06:38:37.273Z,956.34
2023-04-12T06:39:36.547Z,956.35
2023-04-12T06:40:36.711Z,956.32
2023-04-12T06:41:36.718Z,956.28
2023-04-12T06:42:36.769Z,956.21
2023-04-12T06:43:36.814Z,956.18
2023-04-12T06:44:36.808Z,956.19
2023-04-12T06:45:36.873Z,956.16
2023-04-12T06:46:36.969Z,956.12
2023-04-12T06:47:37.021Z,956.11
2023-04-12T06:48:37.065Z,956.06
2023-04-12T06:49:37.125Z,956.08
2023-04-12T06:50:37.200Z,956.02
2023-04-12T06:51:37.274Z,956.01
2023-04-12T06:52:37.372Z,955.90
2023-04-12T06:53:37.401Z,955.88
2023-04-12T06:54:37.473Z,955.91
2023-04-12T06:55:37.566Z,955.83
2023-04-12T06:56:37.609Z,955.84
2023-04-12T06:57:37.663Z,955.71
2023-04-12T06:58:37.700Z,955.78
2023-04-12T06:59:37.821Z,955.81
2023-04-12T07:00:37.897Z,955.74
2023-04-12T07:01:38.018Z,955.75
2023-04-12T07:02:38.103Z,955.70
2023-04-12T07:03:38.095Z,955.71
2023-04-12T07:04:38.090Z,955.67
2023-04-12T07:05:38.157Z,955.63
2023-04-12T07:06:38.209Z,955.60
2023-04-12T07:07:38.305Z,955.63
2023-04-12T07:08:38.307Z,955.60
2023-04-12T07:09:38.367Z,955.53
2023-04-12T07:10:38.424Z,955.48
2023-04-12T07:11:38.548Z,955.50
2023-04-12T07:12:38.549Z,955.51
2023-04-12T07:13:38.555Z,955.48
2023-04-12T07:14:38.634Z,955.43
2023-04-12T07:15:38.671Z,955.41
2023-04-12T07:16:38.778Z,955.44
2023-04-12T07:17:38.915Z,955.38
2023-04-12T07:18:38.843Z,955.31
2023-04-12T07:19:38.902Z,955.34
2023-04-12T07:20:38.969Z,955.32
2023-04-12T07:21:39.147Z,955.23
2023-04-12T07:22:39.092Z,955.28
2023-04-12T07:23:39.159Z,955.33
2023-04-12T07:24:39.340Z,955.26
2023-04-12T07:25:39.267Z,955.23
2023-04-12T07:26:39.344Z,955.25
2023-04-12T07:27:39.463Z,955.26
2023-04-12T07:28:39.499Z,955.24
2023-04-12T07:29:39.545Z,955.22
2023-04-12T07:30:39.606Z,955.19
2023-04-12T07:31:39.689Z,955.15
2023-04-12T07:32:39.822Z,955.11
2023-04-12T07:33:42.125Z,955.08
2023-04-12T07:34:40.033Z,955.09
2023-04-12T07:35:39.967Z,955.04
2023-04-12T07:36:39.944Z,955.04
2023-04-12T07:37:40.012Z,955.02
2023-04-12T07:38:40.089Z,955.01
2023-04-12T07:39:40.182Z,954.97
2023-04-12T07:40:40.203Z,954.97
2023-04-12T07:41:40.245Z,954.95
2023-04-12T07:42:40.321Z,954.93
2023-04-12T07:43:40.333Z,954.89
2023-04-12T07:44:40.393Z,954.91
2023-04-12T07:45:40.512Z,954.89
2023-04-12T07:46:40.541Z,954.90
2023-04-12T07:47:40.625Z,954.87
2023-04-12T07:48:40.620Z,954.85
2023-04-12T07:49:40.750Z,954.81
2023-04-12T07:50:41.270Z,954.81
2023-04-12T07:51:40.766Z,954.83
2023-04-12T07:52:40.855Z,954.79
2023-04-12T07:53:40.903Z,954.77
2023-04-12T07:54:40.947Z,954.77
2023-04-12T07:55:41.010Z,954.73
2023-04-12T07:56:41.157Z,954.74
2023-04-12T07:57:41.172Z,954.73
2023-04-12T07:58:41.245Z,954.72
2023-04-12T07:59:41.304Z,954.73
2023-04-12T08:00:41.385Z,954.71
2023-04-12T08:01:41.464Z,954.72
2023-04-12T08:02:41.603Z,954.66
2023-04-12T08:03:41.572Z,954.62
2023-04-12T08:04:41.635Z,954.64
2023-04-12T08:05:41.715Z,954.61
2023-04-12T08:06:41.742Z,954.56
2023-04-12T08:07:41.848Z,954.57
2023-04-12T08:08:41.909Z,954.55
2023-04-12T08:09:41.918Z,954.46
2023-04-12T08:10:42.017Z,954.41
2023-04-12T08:11:42.059Z,954.37
2023-04-12T08:12:42.139Z,954.41
2023-04-12T08:13:42.194Z,954.38
2023-04-12T08:14:42.312Z,954.35
2023-04-12T08:15:42.334Z,954.33
2023-04-12T08:16:42.428Z,954.34
2023-04-12T08:17:42.537Z,954.28
2023-04-12T08:18:42.537Z,954.24
2023-04-12T08:19:42.592Z,954.16
2023-04-12T08:20:42.665Z,954.14
2023-04-12T08:21:42.723Z,954.14
2023-04-12T08:22:42.818Z,954.21
2023-04-12T08:23:42.833Z,954.15
2023-04-12T08:24:42.880Z,954.10
2023-04-12T08:25:42.935Z,954.06
2023-04-12T08:26:43.012Z,954.06
2023-04-12T08:27:43.119Z,954.03
2023-04-12T08:28:43.126Z,954.02
2023-04-12T08:29:43.169Z,954.02
2023-04-12T08:30:43.270Z,953.98
2023-04-12T08:31:43.440Z,953.96
2023-04-12T08:32:43.492Z,953.88
2023-04-12T08:33:43.458Z,953.92
2023-04-12T08:34:45.952Z,953.85
2023-04-12T08:35:43.565Z,953.80
2023-04-12T08:36:43.608Z,953.87
2023-04-12T08:37:43.680Z,953.95
2023-04-12T08:38:45.999Z,954.00
2023-04-12T08:39:43.804Z,953.95
2023-04-12T08:40:43.864Z,953.93
2023-04-12T08:41:43.915Z,953.95
2023-04-12T08:42:43.994Z,953.98
2023-04-12T08:43:44.013Z,954.00
2023-04-12T08:44:44.108Z,953.92
2023-04-12T08:45:44.189Z,953.89
2023-04-12T08:46:44.187Z,953.85
2023-04-12T08:47:44.286Z,953.92
2023-04-12T08:48:44.291Z,953.91
2023-04-12T08:49:44.325Z,953.90
2023-04-12T08:50:44.472Z,953.97
2023-04-12T08:51:44.462Z,953.96
2023-04-12T08:52:44.682Z,953.90
2023-04-12T08:53:44.609Z,953.89
2023-04-12T08:54:44.683Z,953.89
2023-04-12T08:55:44.739Z,953.92
2023-04-12T08:56:44.897Z,953.93
2023-04-12T08:57:44.872Z,953.91
2023-04-12T08:58:44.951Z,953.92
2023-04-12T08:59:45.024Z,953.88
2023-04-12T09:00:45.102Z,953.89
2023-04-12T09:01:45.220Z,953.84
2023-04-12T09:02:45.419Z,953.85
2023-04-12T09:03:45.383Z,953.87
2023-04-12T09:04:45.385Z,953.89
2023-04-12T09:05:45.419Z,953.90
2023-04-12T09:06:45.456Z,953.89
2023-04-12T09:07:45.544Z,953.90
2023-04-12T09:08:45.604Z,953.84
2023-04-12T09:09:45.681Z,953.83
2023-04-12T09:10:45.804Z,953.77
2023-04-12T09:11:45.836Z,953.77
2023-04-12T09:12:45.927Z,953.79
2023-04-12T09:13:45.940Z,953.77
2023-04-12T09:14:46.034Z,953.76
2023-04-12T09:15:46.081Z,953.74
2023-04-12T09:16:46.236Z,953.69
2023-04-12T09:17:46.280Z,953.70
2023-04-12T09:18:46.310Z,953.71
2023-04-12T09:19:46.383Z,953.67
2023-04-12T09:20:46.402Z,953.67
2023-04-12T09:21:46.454Z,953.65
2023-04-12T09:22:46.918Z,953.64
2023-04-12T09:23:46.604Z,953.68
2023-04-12T09:24:46.702Z,953.67
2023-04-12T09:25:46.691Z,953.67
2023-04-12T09:26:46.768Z,953.63
2023-04-12T09:27:46.913Z,953.66
2023-04-12T09:28:46.924Z,953.64
2023-04-12T09:29:46.993Z,953.62
2023-04-12T09:30:47.042Z,953.60
2023-04-12T09:35:32.795Z,953.60
2023-04-12T09:36:33.851Z,953.58
2023-04-12T09:37:33.892Z,953.58
2023-04-12T09:38:33.930Z,953.59
2023-04-12T09:39:34.044Z,953.52
2023-04-12T09:40:34.110Z,953.55
2023-04-12T09:41:34.127Z,953.56
2023-04-12T09:42:34.846Z,953.55
2023-04-12T09:43:34.301Z,953.53
2023-04-12T09:44:34.312Z,953.51
2023-04-12T09:45:34.430Z,953.52
2023-04-12T09:46:34.497Z,953.54
2023-04-12T09:47:34.571Z,953.52
2023-04-12T09:48:34.616Z,953.52
2023-04-12T09:49:34.633Z,953.45
2023-04-12T09:50:34.737Z,953.47
2023-04-12T09:51:34.778Z,953.45
2023-04-12T09:52:34.846Z,953.45
2023-04-12T09:53:34.914Z,953.43
2023-04-12T09:54:34.965Z,953.39
2023-04-12T09:55:35.085Z,953.38
2023-04-12T09:56:35.106Z,953.33
2023-04-12T09:57:35.155Z,953.30
2023-04-12T09:58:35.233Z,953.29
2023-04-12T09:59:35.367Z,953.31
2023-04-12T10:00:35.444Z,953.26
2023-04-12T10:01:35.580Z,953.26
2023-04-12T10:02:35.649Z,953.26
2023-04-12T10:03:35.679Z,953.26
2023-04-12T10:04:35.797Z,953.25
2023-04-12T10:05:35.847Z,953.21
2023-04-12T10:06:35.849Z,953.21
2023-04-12T10:07:35.809Z,953.17
2023-04-12T10:10:29.831Z,953.12
2023-04-12T10:11:30.866Z,953.11
2023-04-12T10:12:30.882Z,953.13
2023-04-12T10:13:30.928Z,953.12
2023-04-12T10:14:31.007Z,953.09
2023-04-12T10:15:31.077Z,953.10
2023-04-12T10:16:31.231Z,953.12
2023-04-12T10:17:31.206Z,953.13
2023-04-12T10:18:31.273Z,953.12
2023-04-12T10:19:31.337Z,953.13
2023-04-12T10:20:31.374Z,953.07
2023-04-12T10:21:31.566Z,953.08
2023-04-12T10:22:31.502Z,953.10
2023-04-12T10:23:31.594Z,953.03
2023-04-12T10:24:31.596Z,953.07
2023-04-12T10:25:32.015Z,953.07
2023-04-12T10:26:31.919Z,953.03
2023-04-12T10:27:31.813Z,953.03
2023-04-12T10:28:31.880Z,953.03
2023-04-12T10:29:31.916Z,953.04
2023-04-12T10:30:32.117Z,952.98
2023-04-12T10:31:32.130Z,953.03
2023-04-12T10:32:33.467Z,953.01
2023-04-12T10:33:32.180Z,953.00
2023-04-12T10:34:32.285Z,953.00
2023-04-12T10:35:32.371Z,953.00
2023-04-12T10:36:32.496Z,952.98
2023-04-12T10:37:32.467Z,952.98
2023-04-12T10:38:35.386Z,952.96
2023-04-12T10:39:32.607Z,952.95
2023-04-12T10:40:32.696Z,952.93
2023-04-12T10:41:32.758Z,952.93
2023-04-12T10:42:32.833Z,952.90
2023-04-12T10:43:32.887Z,952.84
2023-04-12T10:44:32.947Z,952.83
2023-04-12T10:45:33.077Z,952.82
2023-04-12T10:46:33.133Z,952.81
2023-04-12T10:47:33.190Z,952.80
2023-04-12T10:48:33.164Z,952.81
2023-04-12T10:49:33.214Z,952.84
2023-04-12T10:50:33.321Z,952.86
2023-04-12T10:51:33.366Z,952.90
2023-04-12T10:52:33.410Z,952.92
2023-04-12T10:53:33.447Z,952.86
2023-04-12T10:54:33.535Z,952.84
2023-04-12T10:55:33.565Z,952.84
2023-04-12T10:56:33.650Z,952.85
2023-04-12T10:57:33.691Z,952.83
2023-04-12T10:58:33.741Z,952.85
2023-04-12T10:59:47.006Z,952.84
2023-04-12T11:00:33.916Z,952.84
2023-04-12T11:01:36.636Z,952.81
2023-04-12T11:02:34.090Z,952.82
2023-04-12T11:03:34.108Z,952.78
2023-04-12T11:04:34.151Z,952.77
2023-04-12T11:05:34.332Z,952.72
2023-04-12T11:06:34.227Z,952.69
2023-04-12T11:07:34.266Z,952.69
2023-04-12T11:08:34.378Z,952.69
2023-04-12T11:09:34.465Z,952.64
2023-04-12T11:10:34.444Z,952.66
2023-04-12T11:11:34.807Z,952.66
2023-04-12T11:12:34.552Z,952.62
2023-04-12T11:13:34.631Z,952.59
2023-04-12T11:14:34.703Z,952.59
2023-04-12T11:15:34.739Z,952.59
2023-04-12T11:16:34.883Z,952.59
2023-04-12T11:17:37.111Z,952.59
2023-04-12T11:18:34.938Z,952.58
2023-04-12T11:19:34.978Z,952.57
2023-04-12T11:20:35.056Z,952.57
2023-04-12T11:21:35.145Z,952.57
2023-04-12T11:22:35.263Z,952.56
2023-04-12T11:23:35.263Z,952.56
2023-04-12T11:24:35.288Z,952.51
2023-04-12T11:25:35.350Z,952.48
2023-04-12T11:26:35.481Z,952.45
2023-04-12T11:27:35.480Z,952.47
2023-04-12T11:28:35.747Z,952.47
2023-04-12T11:29:35.634Z,952.46
2023-04-12T11:30:35.869Z,952.45
2023-04-12T11:31:35.786Z,952.44
2023-04-12T11:32:35.806Z,952.41
2023-04-12T11:33:35.873Z,952.34
2023-04-12T11:34:35.920Z,952.32
2023-04-12T11:35:35.965Z,952.34
2023-04-12T11:36:36.060Z,952.36
2023-04-12T11:37:36.091Z,952.31
2023-04-12T11:38:36.459Z,952.28
2023-04-12T11:39:36.173Z,952.27
2023-04-12T11:40:36.501Z,952.25
2023-04-12T11:41:39.862Z,952.21
2023-04-12T11:42:36.325Z,952.23
2023-04-12T11:43:36.347Z,952.20
2023-04-12T11:44:52.434Z,952.21
2023-04-12T11:45:36.490Z,952.13
2023-04-12T11:46:36.520Z,952.13
2023-04-12T11:47:36.645Z,952.14
2023-04-12T11:48:36.616Z,952.14
2023-04-12T11:49:36.671Z,952.18
2023-04-12T11:50:37.391Z,952.14
2023-04-12T11:51:37.379Z,952.11
2023-04-12T11:52:36.839Z,952.15
2023-04-12T11:53:36.915Z,952.09
2023-04-12T11:54:36.901Z,952.07
2023-04-12T11:55:37.102Z,952.12
2023-04-12T11:56:37.030Z,952.14
2023-04-12T11:57:37.125Z,952.08
2023-04-12T11:58:37.180Z,952.08
2023-04-12T11:59:37.274Z,952.09
2023-04-12T12:00:40.501Z,952.07
2023-04-12T12:01:37.583Z,952.08
2023-04-12T12:02:43.674Z,952.10
2023-04-12T12:03:37.931Z,952.11
2023-04-12T12:04:37.926Z,952.09
2023-04-12T12:05:38.049Z,952.05
2023-04-12T12:06:38.787Z,952.04
2023-04-12T12:07:38.290Z,952.08
2023-04-12T12:11:31.724Z,952.03
2023-04-12T12:12:37.151Z,951.98
2023-04-12T12:13:33.413Z,952.04
2023-04-12T12:14:32.289Z,951.98
2023-04-12T12:15:32.330Z,951.96
2023-04-12T12:16:32.305Z,951.91
2023-04-12T12:17:32.419Z,951.99
2023-04-12T12:18:32.416Z,951.95
2023-04-12T12:19:34.019Z,951.97
2023-04-12T12:20:32.621Z,951.95
2023-04-12T12:21:32.656Z,951.94
2023-04-12T12:22:32.638Z,951.90
2023-04-12T12:23:32.893Z,951.87
2023-04-12T12:24:32.824Z,951.79
2023-04-12T12:25:33.028Z,951.87
2023-04-12T12:26:32.860Z,951.89
2023-04-12T12:27:33.046Z,951.92
2023-04-12T12:28:33.309Z,951.90
2023-04-12T12:29:33.203Z,951.92
2023-04-12T12:30:33.162Z,951.81
2023-04-12T12:31:33.220Z,951.81
2023-04-12T12:32:33.407Z,951.79
2023-04-12T12:33:45.122Z,951.83
2023-04-12T12:34:33.689Z,951.74
2023-04-12T12:35:33.336Z,951.73
2023-04-12T12:36:33.798Z,951.79
2023-04-12T12:37:33.794Z,951.80
2023-04-12T12:38:36.317Z,951.78
2023-04-12T12:39:34.197Z,951.77
2023-04-12T12:40:35.726Z,951.73
2023-04-12T12:41:34.150Z,951.72
2023-04-12T12:44:29.319Z,951.75
2023-04-12T12:45:31.407Z,951.70
2023-04-12T12:46:40.742Z,951.69
2023-04-12T12:47:30.386Z,951.70
2023-04-12T12:48:29.188Z,951.65
2023-04-12T12:49:29.583Z,951.72
2023-04-12T12:50:29.200Z,951.64
2023-04-12T12:51:30.169Z,951.61
2023-04-12T12:52:29.551Z,951.61
2023-04-12T12:53:29.497Z,951.71
2023-04-12T12:54:40.663Z,951.69
2023-04-12T12:55:29.475Z,951.58
2023-04-12T12:56:31.577Z,951.66
2023-04-12T12:57:29.693Z,951.67
2023-04-12T12:58:30.656Z,951.64
2023-04-12T12:59:30.553Z,951.59
2023-04-12T13:00:29.691Z,951.64
2023-04-12T13:01:29.917Z,951.58
2023-04-12T13:02:30.259Z,951.56
2023-04-12T13:03:29.993Z,951.61
2023-04-12T13:04:30.693Z,951.60
2023-04-12T13:07:18.358Z,951.49
2023-04-12T13:08:18.902Z,951.39
2023-04-12T13:09:19.229Z,951.38
2023-04-12T13:10:19.154Z,951.35
2023-04-12T13:11:19.150Z,951.33